Terminal Aerodrome Forecast
Issued by NWS Pueblo, CO

Home | Current Version | Previous Version | Text Only | Print | Product List | Glossary On
Versions: 1 2 3 4 5 6 7 8 9 10 11 12 13 14 15 16 17 18 19 20 21 22 23 24 25 26 27
000
FTUS45 KPUB 130520
TAFPUB
TAF
KPUB 130520Z 1306/1406 06006KT P6SM SCT250
     FM130800 VRB03KT P6SM BKN010
      TEMPO 1310/1314 3SM BR BKN005
     FM131500 VRB05KT P6SM SCT015 SCT250
     FM132000 31010KT P6SM SCT250
     FM140200 34007KT P6SM BKN250=

USA.gov is the U.S. government's official web portal to all federal, state and local government web resources and services.